Time;durP1;ratioP1;P1;durP2;ratioP2;P2;SDS_P1;SDS_P2;PMS_P1;PMS_P2;Temp;Humidity;BMP_temperature;BMP_pressure;BME280_temperature;BME280_humidity;BME280_pressure;Samples;Min_cycle;Max_cycle;Signal;HPM_P1;HPM_P2
2022/05/29 00:06:47;;;;;;;9.58;3.75;;;;;;;8.75;100.00;99805.33;1749330;81;21128;-71
2022/05/29 00:09:25;;;;;;;7.60;3.27;;;;;;;8.77;100.00;99802.20;1750953;82;21594;-70
2022/05/29 00:11:50;;;;;;;7.17;3.50;;;;;;;8.81;100.00;99814.28;1750787;81;21041;-70
2022/05/29 00:14:17;;;;;;;10.28;3.87;;;;;;;8.84;100.00;99811.58;1750744;82;21562;-69
2022/05/29 00:16:45;;;;;;;7.97;3.65;;;;;;;8.87;100.00;99806.20;1750764;82;21147;-69
2022/05/29 00:19:11;;;;;;;6.10;3.47;;;;;;;8.91;100.00;99811.76;1750805;82;21320;-69
2022/05/29 00:21:38;;;;;;;6.72;3.83;;;;;;;8.92;100.00;99817.40;1750789;82;21084;-70
2022/05/29 00:24:06;;;;;;;10.70;4.58;;;;;;;8.94;100.00;99807.70;1751153;82;21067;-69
2022/05/29 00:26:33;;;;;;;7.62;4.30;;;;;;;8.98;100.00;99809.31;1699724;82;21050;-70
2022/05/29 00:28:59;;;;;;;7.90;3.98;;;;;;;8.98;100.00;99811.94;1751252;82;21288;-70
2022/05/29 00:31:26;;;;;;;10.35;4.53;;;;;;;8.98;100.00;99809.31;1750823;82;21555;-70
2022/05/29 00:33:54;;;;;;;11.33;3.42;;;;;;;9.00;100.00;99803.55;1750801;82;21074;-69
2022/05/29 00:36:20;;;;;;;3.90;3.25;;;;;;;9.01;100.00;99803.09;1751085;81;21027;-70
2022/05/29 00:38:47;;;;;;;4.72;3.50;;;;;;;9.03;100.00;99802.58;1750834;82;21028;-70
2022/05/29 00:41:18;;;;;;;10.23;3.55;;;;;;;9.03;100.00;99796.86;1750772;81;22977;-70
2022/05/29 00:44:13;;;;;;;5.47;3.83;;;;;;;9.03;100.00;99790.30;1750676;82;21043;-68
2022/05/29 00:46:58;;;;;;;5.83;3.60;;;;;;;9.02;100.00;99784.66;1750642;82;21042;-70
2022/05/29 00:49:35;;;;;;;10.70;3.58;;;;;;;9.00;100.00;99779.91;1750634;82;21110;-70
2022/05/29 00:52:13;;;;;;;7.97;4.17;;;;;;;9.03;100.00;99788.98;1750887;81;21133;-70
2022/05/29 00:54:55;;;;;;;7.37;3.20;;;;;;;9.03;100.00;99781.11;1750643;82;21515;-70
2022/05/29 00:57:31;;;;;;;6.30;4.00;;;;;;;9.04;100.00;99774.08;1750965;81;21061;-70
2022/05/29 01:00:05;;;;;;;6.15;4.05;;;;;;;9.06;100.00;99776.19;1750705;82;21024;-70
2022/05/29 01:02:32;;;;;;;7.83;3.85;;;;;;;9.08;100.00;99775.69;1737735;81;21110;-69
2022/05/29 01:04:58;;;;;;;9.70;4.30;;;;;;;9.11;100.00;99778.22;1738216;82;21063;-70
2022/05/29 01:07:26;;;;;;;7.90;4.37;;;;;;;9.15;100.00;99777.17;1737896;82;21605;-70
2022/05/29 01:09:53;;;;;;;10.72;4.30;;;;;;;9.20;100.00;99788.82;1738010;82;21532;-70
2022/05/29 01:12:34;;;;;;;8.15;4.40;;;;;;;9.25;100.00;99798.73;1737882;82;21114;-70
2022/05/29 01:15:30;;;;;;;5.33;3.90;;;;;;;9.27;100.00;99795.59;1740977;82;21100;-69
2022/05/29 01:18:38;;;;;;;7.25;4.58;;;;;;;9.30;100.00;99803.35;1742498;82;21049;-70
2022/05/29 01:21:42;;;;;;;6.90;4.45;;;;;;;9.33;100.00;99807.17;1742418;82;21284;-71
2022/05/29 01:24:43;;;;;;;15.90;4.78;;;;;;;9.35;100.00;99807.98;1742410;82;21030;-70
2022/05/29 01:27:41;;;;;;;;;;;;;;;9.38;100.00;99807.00;1723126;82;21609;-70
2022/05/29 01:30:20;;;;;;;10.15;4.60;;;;;;;9.39;100.00;99804.80;1730304;82;20435;-71
2022/05/29 01:33:04;;;;;;;8.93;5.22;;;;;;;9.39;100.00;99818.78;1742828;82;21589;-70
2022/05/29 01:36:06;;;;;;;7.87;4.37;;;;;;;9.39;100.00;99809.58;1742452;82;21367;-70
2022/05/29 01:38:56;;;;;;;13.55;5.05;;;;;;;9.40;100.00;99808.66;1742530;82;21048;-70
2022/05/29 01:41:30;;;;;;;10.90;5.33;;;;;;;9.44;100.00;99816.83;1742484;82;21037;-69
2022/05/29 01:44:25;;;;;;;12.05;5.67;;;;;;;9.47;100.00;99813.69;1721910;82;21083;-70
2022/05/29 01:46:57;;;;;;;8.43;4.80;;;;;;;9.51;100.00;99824.50;1742087;82;21044;-70
2022/05/29 01:49:40;;;;;;;7.30;4.17;;;;;;;9.55;100.00;99822.16;1742357;82;21770;-70
2022/05/29 01:52:26;;;;;;;7.47;4.75;;;;;;;9.57;100.00;99819.88;1722954;82;21074;-70
2022/05/29 01:55:18;;;;;;;8.93;5.28;;;;;;;9.60;100.00;99833.36;1706734;84;21113;-69
2022/05/29 01:57:48;;;;;;;11.28;5.25;;;;;;;9.63;100.00;99837.17;1719558;82;21040;-69
2022/05/29 02:00:23;;;;;;;11.40;5.97;;;;;;;9.65;100.00;99834.03;1742731;82;21640;-75
2022/05/29 02:03:13;;;;;;;6.60;4.80;;;;;;;9.66;100.00;99835.73;1749442;82;21121;-69
2022/05/29 02:05:49;;;;;;;8.30;4.47;;;;;;;9.68;100.00;99831.73;1750264;82;21053;-70
2022/05/29 02:08:30;;;;;;;7.85;4.70;;;;;;;9.69;100.00;99825.58;1750058;82;21584;-70
2022/05/29 02:18:44;;;;;;;8.53;5.03;;;;;;;9.75;100.00;99830.12;1787433;80;21548;-69
2022/05/29 02:21:22;;;;;;;8.83;4.62;;;;;;;9.79;100.00;99835.66;1787515;80;21218;-70
2022/05/29 02:23:53;;;;;;;10.23;4.85;;;;;;;9.81;100.00;99832.52;1787472;80;20998;-69
2022/05/29 02:26:30;;;;;;;7.83;4.78;;;;;;;9.83;100.00;99841.22;1787707;80;20965;-70
2022/05/29 02:29:01;;;;;;;9.88;4.03;;;;;;;9.85;100.00;99849.91;1782673;80;21072;-69
2022/05/29 02:31:58;;;;;;;7.28;4.30;;;;;;;9.87;100.00;99848.08;1787427;80;21529;-68
2022/05/29 02:34:46;;;;;;;7.58;3.95;;;;;;;9.87;100.00;99855.97;1787547;80;21410;-70
2022/05/29 02:37:23;;;;;;;10.45;5.85;;;;;;;9.87;100.00;99848.08;1787343;80;21493;-69
2022/05/29 02:40:33;;;;;;;9.55;4.62;;;;;;;9.90;100.00;99846.25;1787479;80;21571;-69
2022/05/29 02:43:39;;;;;;;22.85;8.68;;;;;;;9.88;100.00;99852.41;1787840;80;21119;-71
2022/05/29 02:46:36;;;;;;;22.35;9.18;;;;;;;9.89;100.00;99863.78;1785113;80;21060;-69
2022/05/29 02:49:20;;;;;;;28.02;10.80;;;;;;;9.88;100.00;99855.03;1785599;80;21164;-71
2022/05/29 02:51:54;;;;;;;35.00;14.40;;;;;;;9.90;100.00;99855.45;1787201;80;21600;-69
2022/05/29 02:54:27;;;;;;;40.00;17.30;;;;;;;9.90;100.00;99856.77;1787320;80;21104;-71
2022/05/29 02:56:56;;;;;;;36.40;14.63;;;;;;;9.90;100.00;99872.55;1787320;80;21057;-72
2022/05/29 02:59:26;;;;;;;33.55;14.58;;;;;;;9.92;100.00;99868.09;1787567;80;21096;-69
2022/05/29 03:02:18;;;;;;;;;;;;;;;9.94;100.00;99860.97;1788155;79;21287;-70
2022/05/29 03:05:26;;;;;;;12.25;6.28;;;;;;;9.95;100.00;99875.39;1730705;80;20222;-70
2022/05/29 03:08:23;;;;;;;14.33;5.95;;;;;;;9.96;100.00;99872.30;1782417;80;21061;-70
2022/05/29 03:11:05;;;;;;;9.58;4.97;;;;;;;9.98;100.00;99870.47;1782347;80;21033;-69
2022/05/29 03:13:55;;;;;;;10.10;4.75;;;;;;;10.00;100.00;99867.32;1778711;80;21097;-69
2022/05/29 03:16:33;;;;;;;8.35;3.80;;;;;;;10.02;100.00;99858.91;1749127;81;21150;-69
2022/05/29 03:19:28;;;;;;;6.50;3.83;;;;;;;10.03;100.00;99865.44;1744079;81;21050;-70
2022/05/29 03:22:08;;;;;;;6.65;4.30;;;;;;;10.04;100.00;99862.34;1756339;81;21089;-70
2022/05/29 03:25:01;;;;;;;8.63;4.65;;;;;;;10.07;100.00;99853.00;1756364;81;21026;-70
2022/05/29 03:27:39;;;;;;;7.12;3.77;;;;;;;10.10;100.00;99859.48;1755936;81;22116;-70
2022/05/29 03:30:18;;;;;;;8.75;4.00;;;;;;;10.11;100.00;99854.61;1755244;81;21148;-69
2022/05/29 03:32:45;;;;;;;11.83;4.97;;;;;;;10.11;100.00;99850.66;1755935;81;21053;-70
2022/05/29 03:35:25;;;;;;;9.45;5.10;;;;;;;10.12;100.00;99854.14;1755872;81;21037;-69
2022/05/29 03:37:53;;;;;;;12.23;5.78;;;;;;;10.13;100.00;99851.46;1755529;81;21605;-69
2022/05/29 03:40:20;;;;;;;10.78;6.58;;;;;;;10.14;100.00;99857.58;1756029;81;21015;-70
2022/05/29 03:42:47;;;;;;;10.32;6.00;;;;;;;10.15;100.00;99862.78;1755924;81;21085;-69
2022/05/29 03:45:13;;;;;;;11.73;6.37;;;;;;;10.17;100.00;99866.22;1756121;81;21084;-70
2022/05/29 03:47:40;;;;;;;12.15;6.92;;;;;;;10.19;100.00;99872.28;1755925;81;21097;-69
2022/05/29 03:50:11;;;;;;;16.07;8.75;;;;;;;10.22;100.00;99872.14;1756121;81;21085;-69
2022/05/29 03:52:37;;;;;;;18.55;9.78;;;;;;;10.26;100.00;99876.38;1756150;81;21033;-68
2022/05/29 03:55:05;;;;;;;19.27;8.75;;;;;;;10.31;100.00;99874.03;1755993;81;21543;-69
2022/05/29 03:57:32;;;;;;;16.17;7.50;;;;;;;10.35;100.00;99871.21;1755933;81;21119;-70
2022/05/29 04:00:00;;;;;;;17.80;7.15;;;;;;;10.40;100.00;99869.28;1756089;81;21874;-70
2022/05/29 04:02:27;;;;;;;17.37;8.08;;;;;;;10.48;100.00;99880.80;1756012;81;21092;-69
2022/05/29 04:04:54;;;;;;;8.38;5.83;;;;;;;10.54;100.00;99886.30;1755810;81;21080;-69
2022/05/29 04:12:03;;;;;;;9.85;5.42;;;;;;;10.59;100.00;99892.22;1755967;81;21579;-70
2022/05/29 04:12:30;;;;;;;12.20;5.90;;;;;;;10.73;100.00;99896.92;1745375;81;21037;-69
2022/05/29 04:14:57;;;;;;;13.60;7.30;;;;;;;10.80;100.00;99912.41;1741723;81;21051;-70
2022/05/29 04:17:23;;;;;;;9.85;5.80;;;;;;;10.88;100.00;99918.66;1728856;83;21120;-70
2022/05/29 04:19:50;;;;;;;13.65;7.12;;;;;;;10.96;100.00;99914.41;1728704;83;21251;-70
2022/05/29 04:22:21;;;;;;;23.32;10.70;;;;;;;11.04;100.00;99910.53;1728721;83;21650;-69
2022/05/29 04:24:47;;;;;;;22.02;10.23;;;;;;;11.08;100.00;99909.92;1710404;83;21614;-70
2022/05/29 04:27:15;;;;;;;11.73;5.22;;;;;;;11.17;100.00;99916.59;1728749;83;21030;-69
2022/05/29 04:29:41;;;;;;;10.55;5.83;;;;;;;11.24;99.61;99915.40;1728858;83;21133;-69
2022/05/29 04:34:57;;;;;;;7.05;3.30;;;;;;;11.45;99.16;99919.72;1728770;83;21039;-70
2022/05/29 04:37:24;;;;;;;4.25;2.90;;;;;;;11.68;98.31;99911.26;1729145;83;21560;-68
2022/05/29 04:39:51;;;;;;;6.53;3.05;;;;;;;11.89;97.48;99918.25;1728911;83;21054;-69
2022/05/29 04:42:18;;;;;;;4.50;2.40;;;;;;;12.10;96.58;99923.44;1729115;83;21054;-70
2022/05/29 04:44:46;;;;;;;7.15;3.05;;;;;;;12.24;93.97;99910.47;1728836;83;20999;-69
2022/05/29 04:47:12;;;;;;;3.52;2.05;;;;;;;12.34;91.17;99910.41;1729229;82;21097;-70
2022/05/29 04:49:39;;;;;;;7.10;2.27;;;;;;;12.42;90.09;99913.14;1728715;83;21089;-70
2022/05/29 04:52:07;;;;;;;4.83;3.22;;;;;;;12.53;88.33;99913.48;1729195;83;21053;-70
2022/05/29 04:54:37;;;;;;;4.05;2.35;;;;;;;12.67;88.23;99920.27;1728735;83;21626;-69
2022/05/29 04:57:06;;;;;;;4.20;2.15;;;;;;;12.88;88.64;99934.20;1729128;83;21315;-70
2022/05/29 04:59:33;;;;;;;5.08;2.52;;;;;;;13.14;86.28;99927.63;1728758;83;21051;-70
2022/05/29 05:02:01;;;;;;;2.87;1.85;;;;;;;13.47;85.99;99932.61;1728854;83;21090;-70
2022/05/29 05:04:29;;;;;;;4.37;2.00;;;;;;;13.74;81.58;99921.05;1728932;83;21121;-70
2022/05/29 05:06:58;;;;;;;3.20;1.85;;;;;;;13.90;81.41;99919.28;1729254;83;21083;-72
2022/05/29 05:09:26;;;;;;;3.27;1.95;;;;;;;14.13;79.36;99930.42;1729020;83;21128;-71
2022/05/29 05:11:53;;;;;;;4.03;1.50;;;;;;;14.29;77.30;99929.95;1728818;83;21074;-70
2022/05/29 05:14:20;;;;;;;6.22;1.45;;;;;;;14.39;73.11;99931.14;1742821;81;21082;-70
2022/05/29 05:16:48;;;;;;;6.15;1.80;;;;;;;14.50;71.50;99937.17;1681563;84;21117;-71
2022/05/29 05:19:15;;;;;;;2.60;1.40;;;;;;;14.56;71.13;99936.86;1681603;84;21026;-71
2022/05/29 05:21:42;;;;;;;1.77;1.30;;;;;;;14.67;70.02;99942.86;1681630;85;21610;-70
2022/05/29 05:24:11;;;;;;;5.10;1.42;;;;;;;14.78;68.73;99941.78;1681959;85;21511;-70
2022/05/29 05:26:38;;;;;;;4.92;1.50;;;;;;;15.07;68.90;99944.56;1681802;84;21121;-70
2022/05/29 05:29:04;;;;;;;2.92;1.27;;;;;;;15.33;67.90;99936.84;1682058;85;21459;-70
2022/05/29 05:31:31;;;;;;;2.15;1.10;;;;;;;15.71;67.12;99938.07;1681818;85;21037;-71
2022/05/29 05:33:59;;;;;;;3.08;1.22;;;;;;;16.05;63.10;99927.98;1681606;84;21108;-69
2022/05/29 05:36:26;;;;;;;2.50;1.12;;;;;;;16.25;61.63;99932.53;1681702;85;21207;-70
2022/05/29 05:38:53;;;;;;;2.72;1.10;;;;;;;16.38;59.81;99933.45;1681772;84;21102;-71
2022/05/29 05:41:20;;;;;;;2.58;1.22;;;;;;;16.57;57.97;99928.64;1682053;85;21594;-71
2022/05/29 05:43:48;;;;;;;1.52;1.02;;;;;;;16.80;57.69;99930.31;1681898;84;21074;-70
2022/05/29 05:46:16;;;;;;;1.92;1.30;;;;;;;16.87;55.67;99930.28;1682091;85;21113;-71
2022/05/29 05:48:43;;;;;;;6.03;1.42;;;;;;;16.97;56.36;99927.36;1681743;85;21265;-71
2022/05/29 05:51:10;;;;;;;3.80;1.27;;;;;;;17.14;56.88;99925.41;1681768;85;21089;-70
2022/05/29 05:53:37;;;;;;;4.92;1.20;;;;;;;17.46;56.99;99923.66;1681707;85;21133;-70
2022/05/29 05:56:12;;;;;;;4.10;1.10;;;;;;;17.82;55.97;99921.62;1681574;84;21094;-70
2022/05/29 05:58:40;;;;;;;1.95;1.00;;;;;;;18.15;54.88;99926.38;1681761;84;21118;-70
2022/05/29 06:01:10;;;;;;;6.17;1.30;;;;;;;18.50;52.29;99924.78;1681602;84;21578;-71
2022/05/29 06:03:38;;;;;;;2.92;1.30;;;;;;;18.63;51.82;99925.56;1679685;84;21202;-72
2022/05/29 06:06:05;;;;;;;2.98;1.17;;;;;;;18.83;51.57;99933.45;1681740;85;21520;-71
2022/05/29 06:08:32;;;;;;;2.52;1.10;;;;;;;19.08;52.24;99931.14;1681790;85;21069;-71
2022/05/29 06:11:00;;;;;;;1.87;1.12;;;;;;;19.42;50.89;99921.41;1681615;84;21140;-70
2022/05/29 06:13:27;;;;;;;3.05;1.00;;;;;;;19.78;45.11;99930.20;1683682;84;21047;-71
2022/05/29 06:15:53;;;;;;;4.83;1.00;;;;;;;20.04;42.32;99925.48;1704070;83;21049;-71
2022/05/29 06:18:20;;;;;;;6.37;1.02;;;;;;;20.24;42.98;99918.52;1768119;81;21175;-70
2022/05/29 06:28:19;;;;;;;1.07;0.78;;;;;;;20.77;37.11;99922.32;1748327;81;21116;-70
2022/05/29 06:30:45;;;;;;;5.03;1.50;;;;;;;20.94;37.58;99919.95;1768431;80;21483;-70
2022/05/29 06:33:12;;;;;;;2.62;1.10;;;;;;;21.34;37.30;99921.08;1768136;81;21108;-70
2022/05/29 06:35:40;;;;;;;5.22;1.10;;;;;;;21.60;35.61;99924.72;1768379;81;21100;-69
2022/05/29 06:38:07;;;;;;;4.35;1.00;;;;;;;21.75;36.14;99918.03;1768512;81;21014;-71
2022/05/29 06:40:34;;;;;;;2.45;1.00;;;;;;;22.05;35.40;99921.69;1768405;81;21109;-70
2022/05/29 06:43:01;;;;;;;2.98;0.70;;;;;;;22.17;35.25;99919.25;1768257;81;21558;-71
2022/05/29 06:45:28;;;;;;;3.55;1.00;;;;;;;22.21;34.72;99923.39;1768591;81;21109;-70
2022/05/29 06:47:54;;;;;;;2.37;1.10;;;;;;;22.41;33.17;99927.83;1767989;81;21768;-71
2022/05/29 06:50:21;;;;;;;3.35;0.90;;;;;;;22.49;32.31;99931.16;1768321;81;21077;-71
2022/05/29 06:52:47;;;;;;;3.50;1.20;;;;;;;22.46;32.80;99930.60;1768121;81;21076;-70
2022/05/29 06:55:15;;;;;;;6.08;1.00;;;;;;;22.49;33.82;99923.61;1767965;81;21074;-71
2022/05/29 06:57:46;;;;;;;1.77;0.85;;;;;;;22.76;32.92;99931.00;1768156;81;21041;-71
2022/05/29 07:08:46;;;;;;;3.50;1.00;;;;;;;23.52;30.77;99922.20;1768385;81;21554;-73
2022/05/29 07:11:16;;;;;;;2.62;1.10;;;;;;;23.60;30.46;99931.25;1768638;81;21086;-71
2022/05/29 07:13:43;;;;;;;1.87;1.10;;;;;;;23.59;29.78;99929.53;1762677;81;21207;-71
2022/05/29 07:16:11;;;;;;;3.40;0.88;;;;;;;23.52;29.95;99937.83;1742622;81;21014;-71
2022/05/29 07:18:38;;;;;;;2.65;1.10;;;;;;;23.65;29.80;99933.50;1742856;82;21043;-70
2022/05/29 07:21:05;;;;;;;1.95;1.00;;;;;;;23.68;30.32;99932.36;1742697;81;22121;-70
2022/05/29 07:23:35;;;;;;;2.45;1.00;;;;;;;23.71;30.51;99937.42;1742732;81;21117;-71
2022/05/29 07:26:01;;;;;;;6.30;0.90;;;;;;;23.82;30.48;99939.97;1742601;81;21863;-72
2022/05/29 07:28:28;;;;;;;2.98;1.00;;;;;;;24.10;29.66;99940.84;1742733;82;21078;-72
2022/05/29 07:30:55;;;;;;;2.33;0.88;;;;;;;24.08;29.21;99934.77;1742666;82;21046;-72
2022/05/29 07:33:23;;;;;;;2.85;0.98;;;;;;;24.04;29.63;99938.27;1743146;81;21084;-71
2022/05/29 07:35:49;;;;;;;3.35;0.93;;;;;;;24.14;29.58;99935.53;1742886;82;21569;-71
2022/05/29 07:38:16;;;;;;;3.35;1.15;;;;;;;23.92;30.16;99943.46;1742853;82;22254;-70
2022/05/29 07:40:42;;;;;;;3.17;1.20;;;;;;;23.87;29.82;99935.00;1742786;81;21089;-72
2022/05/29 07:43:22;;;;;;;1.77;0.82;;;;;;;23.95;29.27;99943.19;1742775;81;21097;-72
2022/05/29 07:45:52;;;;;;;2.05;1.15;;;;;;;24.04;29.55;99944.12;1764835;81;21049;-71
2022/05/29 07:48:21;;;;;;;3.62;1.00;;;;;;;24.13;28.99;99926.25;1768262;81;21089;-72
2022/05/29 07:50:47;;;;;;;2.92;1.02;;;;;;;24.46;29.04;99939.10;1768649;81;21858;-71
2022/05/29 07:53:15;;;;;;;1.75;0.78;;;;;;;24.68;29.02;99934.31;1768001;81;21058;-70
2022/05/29 07:55:43;;;;;;;2.42;0.88;;;;;;;24.97;28.74;99936.79;1768463;80;21006;-70
2022/05/29 07:58:10;;;;;;;2.10;1.00;;;;;;;25.15;27.62;99935.44;1768257;81;21054;-73
2022/05/29 08:00:38;;;;;;;3.83;1.25;;;;;;;25.27;27.99;99934.72;1768277;81;21077;-71
2022/05/29 08:03:04;;;;;;;2.35;1.20;;;;;;;25.40;28.38;99931.59;1768177;80;21786;-70
2022/05/29 08:05:34;;;;;;;4.42;1.30;;;;;;;25.38;28.85;99932.28;1768243;80;21046;-71
2022/05/29 08:08:04;;;;;;;3.25;1.10;;;;;;;25.40;28.34;99928.91;1768487;81;21537;-71
2022/05/29 08:10:31;;;;;;;2.45;0.70;;;;;;;25.38;28.48;99934.98;1768295;81;21436;-72
2022/05/29 08:12:57;;;;;;;2.83;1.22;;;;;;;25.32;27.90;99932.39;1768439;81;21640;-71
2022/05/29 08:15:24;;;;;;;3.12;1.07;;;;;;;25.28;27.14;99935.92;1744925;81;21058;-71
2022/05/29 08:17:51;;;;;;;3.80;0.75;;;;;;;25.27;27.79;99938.77;1735805;82;21519;-71
2022/05/29 08:20:17;;;;;;;3.67;1.30;;;;;;;25.37;27.91;99941.36;1735842;82;21121;-72
2022/05/29 08:22:44;;;;;;;2.30;0.90;;;;;;;25.10;27.67;99943.14;1736027;82;21040;-71
2022/05/29 08:30:47;;;;;;;3.20;0.82;;;;;;;24.24;28.87;99943.04;1736048;82;21554;-71
2022/05/29 08:33:24;;;;;;;2.90;1.20;;;;;;;24.14;29.46;99944.10;1735892;82;21073;-70
2022/05/29 08:35:59;;;;;;;2.42;1.10;;;;;;;24.17;29.37;99952.70;1735644;82;21109;-71
2022/05/29 08:38:25;;;;;;;3.35;1.20;;;;;;;24.24;28.84;99945.73;1735879;82;21113;-71
2022/05/29 08:40:56;;;;;;;2.55;1.20;;;;;;;24.19;29.55;99951.22;1736204;82;21180;-71
2022/05/29 08:43:36;;;;;;;4.65;1.12;;;;;;;24.16;29.39;99950.19;1721232;82;21054;-71
2022/05/29 08:46:19;;;;;;;5.08;1.65;;;;;;;24.10;28.91;99956.15;1735978;82;21042;-71
2022/05/29 08:48:47;;;;;;;3.58;0.90;;;;;;;24.18;29.18;99950.86;1735838;82;21086;-72
2022/05/29 08:51:54;;;;;;;1.40;0.98;;;;;;;24.33;28.38;99949.38;1736057;82;21542;-72
2022/05/29 08:54:26;;;;;;;2.50;1.10;;;;;;;24.51;28.14;99944.58;1735842;81;21137;-72
2022/05/29 08:57:21;;;;;;;1.92;0.90;;;;;;;24.18;28.54;99946.82;1735682;82;21023;-73
2022/05/29 08:59:53;;;;;;;4.00;1.10;;;;;;;24.15;28.89;99940.41;1735836;82;21078;-71
2022/05/29 09:03:03;;;;;;;4.15;1.00;;;;;;;24.01;27.90;99950.64;1736008;82;21061;-72
2022/05/29 09:05:56;;;;;;;3.05;1.00;;;;;;;23.93;28.11;99943.83;1736205;82;21014;-73
2022/05/29 09:08:46;;;;;;;2.77;1.30;;;;;;;24.12;28.13;99938.86;1736103;82;21138;-72
2022/05/29 09:11:22;;;;;;;4.55;1.10;;;;;;;24.15;28.19;99943.94;1736069;82;21008;-72
2022/05/29 09:13:59;;;;;;;2.15;0.80;;;;;;;24.10;28.43;99939.50;1735901;82;21692;-71
2022/05/29 09:16:28;;;;;;;2.80;1.00;;;;;;;24.03;28.68;99950.51;1737638;82;21049;-71
2022/05/29 09:19:03;;;;;;;1.90;1.10;;;;;;;23.80;29.21;99952.72;1742782;82;21061;-72
2022/05/29 09:21:35;;;;;;;3.45;1.30;;;;;;;23.73;29.42;99946.20;1731968;82;21148;-73
2022/05/29 09:24:20;;;;;;;3.42;0.88;;;;;;;23.75;29.34;99948.28;1742577;81;21070;-71
2022/05/29 09:26:47;;;;;;;2.20;0.90;;;;;;;23.64;28.67;99951.44;1737494;82;21027;-71
2022/05/29 09:29:13;;;;;;;1.95;0.95;;;;;;;23.44;29.18;99952.47;1742653;82;21602;-72
2022/05/29 09:31:40;;;;;;;2.37;1.00;;;;;;;23.32;29.79;99960.34;1742716;82;21541;-72
2022/05/29 09:34:07;;;;;;;2.27;1.00;;;;;;;23.36;29.68;99946.98;1742710;82;21104;-70
2022/05/29 09:37:10;;;;;;;1.80;0.90;;;;;;;23.55;29.37;99938.88;1742454;81;21030;-72
2022/05/29 09:39:47;;;;;;;4.92;1.07;;;;;;;23.95;29.13;99944.53;1742969;81;21595;-71
2022/05/29 09:42:37;;;;;;;3.42;1.15;;;;;;;24.10;27.81;99944.88;1742448;81;21042;-71
2022/05/29 09:45:15;;;;;;;3.05;1.15;;;;;;;23.86;27.92;99952.14;1742268;81;21114;-71
2022/05/29 09:50:42;;;;;;;1.60;0.95;;;;;;;23.62;28.88;99956.11;1768249;81;21545;-71
2022/05/29 09:53:28;;;;;;;2.00;1.10;;;;;;;23.61;26.79;99949.05;1766917;80;21041;-71
2022/05/29 09:56:06;;;;;;;3.40;1.00;;;;;;;23.73;26.35;99948.89;1768570;81;21038;-70
2022/05/29 09:58:49;;;;;;;1.57;0.75;;;;;;;24.05;26.37;99943.98;1748501;81;21078;-71
2022/05/29 10:01:38;;;;;;;1.42;0.98;;;;;;;24.51;24.89;99941.88;1768125;80;21811;-71
2022/05/29 10:04:05;;;;;;;2.05;1.10;;;;;;;24.06;25.44;99943.00;1768518;81;21518;-71
2022/05/29 10:06:41;;;;;;;3.05;1.22;;;;;;;23.96;25.32;99938.66;1768208;81;21022;-71
2022/05/29 10:09:21;;;;;;;3.45;1.15;;;;;;;24.13;25.46;99934.31;1767833;80;21025;-71
2022/05/29 10:12:00;;;;;;;2.60;0.78;;;;;;;24.04;25.57;99949.03;1768000;81;21104;-70
2022/05/29 10:14:42;;;;;;;3.00;0.90;;;;;;;23.97;25.51;99951.96;1755549;81;21077;-70
2022/05/29 10:17:29;;;;;;;2.15;0.93;;;;;;;23.77;25.90;99947.64;1739877;81;21129;-71
2022/05/29 10:19:56;;;;;;;2.05;0.75;;;;;;;23.86;25.71;99957.02;1735421;82;21538;-71
2022/05/29 10:22:38;;;;;;;4.12;1.00;;;;;;;23.80;24.88;99950.02;1735772;82;21566;-71
2022/05/29 10:25:29;;;;;;;1.35;0.72;;;;;;;23.46;25.90;99954.52;1735981;82;21085;-71
2022/05/29 10:28:04;;;;;;;6.33;1.05;;;;;;;23.49;25.64;99943.50;1735750;82;21261;-71
2022/05/29 10:30:36;;;;;;;2.65;0.75;;;;;;;23.70;25.98;99941.13;1736144;82;21034;-73
2022/05/29 10:33:07;;;;;;;1.87;0.80;;;;;;;23.91;26.09;99944.47;1735850;82;21063;-70
2022/05/29 10:35:37;;;;;;;2.75;0.90;;;;;;;23.68;25.79;99948.48;1735978;82;21043;-71
2022/05/29 10:38:28;;;;;;;3.50;1.10;;;;;;;23.72;26.74;99953.89;1736388;82;21062;-72
2022/05/29 10:40:58;;;;;;;2.42;0.90;;;;;;;24.00;26.58;99940.90;1736133;82;21098;-71
2022/05/29 10:43:54;;;;;;;1.98;0.90;;;;;;;24.40;26.81;99938.86;1736124;82;21059;-71
2022/05/29 10:46:24;;;;;;;1.60;0.80;;;;;;;24.87;25.03;99942.27;1736187;82;21570;-70
2022/05/29 10:49:25;;;;;;;3.27;0.90;;;;;;;24.91;24.70;99942.31;1735746;82;21078;-72
2022/05/29 10:52:13;;;;;;;1.67;0.70;;;;;;;25.10;25.06;99937.25;1736008;82;22091;-69
2022/05/29 10:54:58;;;;;;;8.40;1.10;;;;;;;25.49;24.54;99942.31;1735985;81;21247;-71
2022/05/29 10:57:50;;;;;;;2.90;0.93;;;;;;;25.74;23.78;99944.66;1735967;82;21023;-71
2022/05/29 11:00:37;;;;;;;1.65;1.05;;;;;;;25.58;24.43;99938.30;1735977;82;21035;-72
2022/05/29 11:03:31;;;;;;;1.52;0.90;;;;;;;25.61;23.82;99930.75;1736121;81;21627;-72
2022/05/29 11:06:33;;;;;;;2.02;0.80;;;;;;;25.44;23.45;99938.38;1736105;82;21258;-71
2022/05/29 11:09:06;;;;;;;3.92;1.07;;;;;;;25.28;24.04;99944.00;1736154;82;21553;-72
2022/05/29 11:12:02;;;;;;;1.45;0.82;;;;;;;25.48;24.51;99941.95;1735420;82;21003;-72
2022/05/29 11:14:39;;;;;;;1.82;1.00;;;;;;;25.58;24.84;99939.14;1730177;81;21058;-71
2022/05/29 11:17:22;;;;;;;0.70;0.60;;;;;;;25.87;25.20;99935.31;1727225;82;21042;-71
2022/05/29 11:20:16;;;;;;;1.55;1.05;;;;;;;25.92;22.44;99927.06;1734563;82;21158;-71
2022/05/29 11:22:55;;;;;;;1.60;0.75;;;;;;;25.72;23.02;99934.53;1734320;82;21306;-71
2022/05/29 11:26:04;;;;;;;6.62;0.82;;;;;;;25.63;22.80;99943.58;1734249;82;21125;-71
2022/05/29 11:29:00;;;;;;;1.47;1.00;;;;;;;25.68;22.96;99933.16;1734352;82;21100;-70
2022/05/29 11:31:59;;;;;;;2.62;1.17;;;;;;;25.85;23.20;99927.85;1644625;86;21126;-72
2022/05/29 11:34:39;;;;;;;1.82;0.80;;;;;;;25.99;23.19;99916.48;1731515;82;21058;-71
2022/05/29 11:37:23;;;;;;;4.95;1.37;;;;;;;26.04;23.09;99911.44;1734989;82;21753;-72
2022/05/29 11:40:07;;;;;;;2.10;0.80;;;;;;;26.04;22.83;99915.48;1734476;82;21038;-72
2022/05/29 11:42:56;;;;;;;2.72;0.88;;;;;;;26.05;23.34;99918.55;1735000;82;21664;-71
2022/05/29 11:51:28;;;;;;;2.65;1.10;;;;;;;26.16;22.13;99912.86;1734569;82;21954;-71
2022/05/29 11:54:18;;;;;;;2.55;0.90;;;;;;;25.97;22.02;99925.23;1733744;82;21046;-71
2022/05/29 11:56:49;;;;;;;;;;;;;;;25.70;22.10;99925.75;1737071;82;21122;-71
2022/05/29 11:59:26;;;;;;;1.32;0.72;;;;;;;25.65;23.01;99928.09;1734798;82;20283;-71
2022/05/29 12:02:04;;;;;;;1.92;0.85;;;;;;;25.49;21.81;99933.34;1733468;82;21566;-72
2022/05/29 12:04:36;;;;;;;3.02;0.80;;;;;;;25.12;22.10;99923.60;1731078;82;22203;-71
2022/05/29 12:07:08;;;;;;;1.75;0.90;;;;;;;24.79;22.48;99923.31;1734348;82;21074;-72
2022/05/29 12:09:53;;;;;;;1.90;0.78;;;;;;;24.86;23.51;99919.00;1734429;82;21113;-72
2022/05/29 12:12:26;;;;;;;1.87;1.10;;;;;;;25.01;22.49;99918.48;1734047;82;21095;-72
2022/05/29 12:14:56;;;;;;;2.90;0.90;;;;;;;25.16;22.73;99916.91;1717226;82;21059;-71
2022/05/29 12:17:43;;;;;;;2.37;0.70;;;;;;;25.06;21.74;99918.34;1760343;80;21216;-72
2022/05/29 12:20:46;;;;;;;1.57;0.85;;;;;;;24.97;23.22;99916.59;1678477;85;21078;-70
2022/05/29 12:23:27;;;;;;;3.50;1.00;;;;;;;24.91;21.86;99910.46;1707265;84;21625;-70
2022/05/29 12:26:00;;;;;;;2.15;1.10;;;;;;;24.84;21.63;99920.16;1753485;81;21062;-71
2022/05/29 12:45:46;;;;;;;1.35;0.90;;;;;;;23.42;25.10;99922.20;1678583;85;21965;-72
2022/05/29 12:48:35;;;;;;;1.77;0.98;;;;;;;23.67;24.72;99931.48;1758072;81;21125;-71
2022/05/29 12:51:33;;;;;;;2.40;0.80;;;;;;;23.86;24.31;99926.09;1758444;81;21101;-73
2022/05/29 12:54:39;;;;;;;3.58;0.75;;;;;;;23.78;23.11;99917.05;1758323;81;21050;-73
2022/05/29 12:57:24;;;;;;;4.37;1.00;;;;;;;23.47;24.39;99925.33;1757616;81;20995;-73
2022/05/29 13:00:21;;;;;;;3.83;0.90;;;;;;;23.31;25.58;99933.14;1758066;81;21062;-72
2022/05/29 13:03:18;;;;;;;3.80;0.90;;;;;;;23.24;25.32;99931.02;1758339;81;21105;-71
2022/05/29 13:05:54;;;;;;;1.65;0.80;;;;;;;23.21;25.35;99924.59;1758357;81;21654;-72
2022/05/29 13:08:53;;;;;;;1.22;0.70;;;;;;;23.11;24.62;99919.71;1678561;85;21065;-70
2022/05/29 13:11:25;;;;;;;2.80;0.90;;;;;;;22.87;25.61;99921.94;1758409;81;21105;-71
2022/05/29 13:13:59;;;;;;;3.58;0.80;;;;;;;22.57;25.80;99918.41;1749969;81;21189;-71
2022/05/29 13:16:41;;;;;;;2.17;0.90;;;;;;;22.34;25.69;99926.69;1729255;83;21101;-72
2022/05/29 13:22:04;;;;;;;1.22;0.80;;;;;;;22.29;25.59;99934.30;1737522;82;21058;-71